Time;durP1;ratioP1;P1;durP2;ratioP2;P2;SDS_P1;SDS_P2;PMS_P1;PMS_P2;Temp;Humidity;BMP_temperature;BMP_pressure;BME280_temperature;BME280_humidity;BME280_pressure;Samples;Min_cycle;Max_cycle;Signal;HPM_P1;HPM_P2
2023/03/03 00:00:38;;;;;;;92.40;35.47;;;-1.40;72.00;;;;;;4430892;28;659344;-75
2023/03/03 00:03:26;;;;;;;97.53;35.40;;;-1.50;66.40;;;;;;4403768;28;658661;-75
2023/03/03 00:06:15;;;;;;;96.97;36.53;;;-1.50;71.10;;;;;;4428131;28;658219;-75
2023/03/03 00:09:02;;;;;;;99.03;38.23;;;-1.50;67.50;;;;;;4402942;28;660227;-74
2023/03/03 00:11:53;;;;;;;98.83;38.07;;;-1.60;63.70;;;;;;4427221;28;657707;-75
2023/03/03 00:14:40;;;;;;;93.03;38.43;;;-1.60;65.50;;;;;;4380802;28;659460;-74
2023/03/03 00:17:28;;;;;;;87.03;35.73;;;-1.60;63.20;;;;;;4424109;28;659049;-76
2023/03/03 00:20:32;;;;;;;91.23;36.27;;;-1.60;61.50;;;;;;4403592;28;658384;-75
2023/03/03 00:23:35;;;;;;;94.57;35.13;;;-1.70;59.20;;;;;;4401406;28;658886;-75
2023/03/03 00:26:23;;;;;;;87.40;34.37;;;-1.70;60.00;;;;;;4396027;28;658704;-75
2023/03/03 00:29:31;;;;;;;91.27;35.17;;;-1.80;55.20;;;;;;4407735;28;658905;-75
2023/03/03 00:32:23;;;;;;;87.80;31.57;;;-1.80;46.60;;;;;;4399149;28;659103;-76
2023/03/03 00:35:23;;;;;;;84.23;31.87;;;-1.80;47.00;;;;;;4391097;28;659330;-73
2023/03/03 00:38:12;;;;;;;86.20;32.20;;;-1.90;68.60;;;;;;4377220;28;658884;-75
2023/03/03 00:41:01;;;;;;;95.10;35.00;;;-1.90;84.60;;;;;;4421436;28;659056;-76
2023/03/03 00:43:48;;;;;;;81.23;31.53;;;-1.90;92.80;;;;;;4404480;28;659249;-75
2023/03/03 00:46:35;;;;;;;90.68;33.53;;;-2.00;95.90;;;;;;4404629;28;659344;-74
2023/03/03 00:49:24;;;;;;;100.67;35.50;;;-2.00;96.50;;;;;;4422386;28;658915;-77
2023/03/03 00:52:13;;;;;;;105.30;35.97;;;-2.10;95.50;;;;;;4403210;28;659788;-77
2023/03/03 00:55:00;;;;;;;92.33;34.07;;;-2.10;92.30;;;;;;4421090;28;660630;-74
2023/03/03 00:57:49;;;;;;;97.10;35.50;;;-2.20;92.50;;;;;;4420722;28;658698;-77
2023/03/03 01:00:36;;;;;;;99.73;35.07;;;-2.20;94.40;;;;;;4405205;28;658961;-77
2023/03/03 01:03:24;;;;;;;99.93;37.07;;;-2.20;93.00;;;;;;4424976;28;658936;-77
2023/03/03 01:06:12;;;;;;;92.53;33.50;;;-2.20;91.00;;;;;;4394905;28;659178;-77
2023/03/03 01:08:59;;;;;;;79.93;32.80;;;-2.20;93.90;;;;;;4424963;28;658545;-77
2023/03/03 01:11:46;;;;;;;82.20;33.17;;;-2.20;97.20;;;;;;4401109;28;659010;-80
2023/03/03 01:14:35;;;;;;;88.87;32.70;;;-2.30;99.50;;;;;;4424014;28;659332;-80
2023/03/03 01:17:23;;;;;;;93.80;34.37;;;-2.30;97.80;;;;;;4401797;28;659240;-76
2023/03/03 01:20:11;;;;;;;67.77;26.40;;;-2.30;98.60;;;;;;4414187;28;658668;-74
2023/03/03 01:22:59;;;;;;;60.13;24.47;;;-2.40;98.70;;;;;;4425976;28;658596;-78
2023/03/03 01:25:46;;;;;;;67.60;25.00;;;-2.40;96.50;;;;;;4405059;28;658759;-78
2023/03/03 01:28:33;;;;;;;62.50;24.83;;;-2.50;97.60;;;;;;4432235;28;659194;-78
2023/03/03 01:31:22;;;;;;;59.00;24.57;;;-2.50;98.00;;;;;;4409666;28;658548;-77
2023/03/03 01:34:09;;;;;;;66.47;25.70;;;-2.50;95.70;;;;;;4432906;28;658770;-78
2023/03/03 01:36:56;;;;;;;64.90;26.77;;;-2.50;94.00;;;;;;4410785;28;658928;-78
2023/03/03 01:39:44;;;;;;;65.17;25.63;;;-2.50;93.50;;;;;;4426926;28;659125;-78
2023/03/03 01:42:32;;;;;;;65.37;26.37;;;-2.50;90.90;;;;;;4408468;28;658582;-79
2023/03/03 01:45:20;;;;;;;69.70;26.33;;;-2.50;85.10;;;;;;4429496;28;658483;-78
2023/03/03 01:48:11;;;;;;;63.27;25.47;;;-2.50;64.80;;;;;;4406377;28;659579;-81
2023/03/03 01:51:00;;;;;;;68.73;25.77;;;-2.60;57.10;;;;;;4410740;28;659834;-77
2023/03/03 01:53:49;;;;;;;68.50;26.13;;;-2.70;60.10;;;;;;4411170;28;659660;-80
2023/03/03 01:56:37;;;;;;;95.77;37.70;;;-2.70;66.70;;;;;;4410764;28;658922;-80
2023/03/03 01:59:25;;;;;;;89.77;35.20;;;-2.70;65.00;;;;;;4426513;28;658843;-80
2023/03/03 02:02:12;;;;;;;103.10;42.23;;;-2.70;67.00;;;;;;4404554;28;659505;-81
2023/03/03 02:05:02;;;;;;;86.73;35.70;;;-2.70;66.50;;;;;;4421070;28;660011;-76
2023/03/03 02:07:49;;;;;;;71.93;27.30;;;-2.80;64.40;;;;;;4433903;28;658480;-81
2023/03/03 02:10:36;;;;;;;65.30;26.03;;;-2.80;74.80;;;;;;4402907;28;658825;-81
2023/03/03 02:13:24;;;;;;;67.03;26.63;;;-2.90;86.40;;;;;;4424083;28;659324;-80
2023/03/03 02:16:11;;;;;;;70.57;26.43;;;-2.90;92.90;;;;;;4412499;28;659132;-81
2023/03/03 02:18:58;;;;;;;62.70;24.47;;;-2.90;96.80;;;;;;4429572;28;658897;-79
2023/03/03 02:21:47;;;;;;;64.80;24.80;;;-3.00;96.50;;;;;;4401238;28;658784;-80
2023/03/03 02:24:37;;;;;;;64.60;25.13;;;-3.00;99.30;;;;;;4429610;28;658449;-80
2023/03/03 02:27:25;;;;;;;61.83;24.23;;;-3.00;99.90;;;;;;4408605;28;658902;-81
2023/03/03 02:30:15;;;;;;;61.80;25.17;;;-3.10;99.90;;;;;;4411789;28;659988;-79
2023/03/03 02:33:02;;;;;;;62.23;25.10;;;-3.10;99.90;;;;;;4405053;28;659192;-81
2023/03/03 02:35:49;;;;;;;63.03;24.08;;;-3.10;99.90;;;;;;4433544;28;659223;-80
2023/03/03 02:38:39;;;;;;;63.07;23.27;;;-3.20;99.90;;;;;;4403881;28;659465;-81
2023/03/03 02:41:29;;;;;;;62.10;22.80;;;-3.20;99.90;;;;;;4404227;28;658888;-81
2023/03/03 02:44:18;;;;;;;58.23;23.73;;;-3.20;97.60;;;;;;4411294;28;658610;-81
2023/03/03 02:47:05;;;;;;;60.97;24.48;;;-3.30;98.30;;;;;;4412502;28;659187;-78
2023/03/03 02:49:52;;;;;;;54.13;23.23;;;-3.30;99.90;;;;;;4422035;28;659586;-81
2023/03/03 02:52:40;;;;;;;63.37;23.37;;;-3.30;99.90;;;;;;4423585;28;658858;-75
2023/03/03 02:55:27;;;;;;;62.47;23.80;;;-3.30;99.90;;;;;;4433909;28;658319;-78
2023/03/03 02:58:15;;;;;;;61.57;23.63;;;-3.30;99.90;;;;;;4423735;28;658463;-76
2023/03/03 03:01:04;;;;;;;55.73;22.73;;;-3.30;99.90;;;;;;4366479;28;658670;-76
2023/03/03 03:03:51;;;;;;;60.00;23.73;;;-3.40;99.90;;;;;;4261788;28;658623;-77
2023/03/03 03:06:39;;;;;;;57.07;22.20;;;-3.40;99.90;;;;;;4289609;28;659662;-76
2023/03/03 03:09:27;;;;;;;59.57;23.90;;;-3.40;99.90;;;;;;4314692;28;659478;-78
2023/03/03 03:12:14;;;;;;;58.80;23.70;;;-3.40;98.20;;;;;;4430770;28;658918;-81
2023/03/03 03:15:02;;;;;;;57.87;22.43;;;-3.40;92.60;;;;;;4412751;28;659144;-79
2023/03/03 03:17:50;;;;;;;52.50;21.53;;;-3.40;90.00;;;;;;4426730;28;658575;-81
2023/03/03 03:20:40;;;;;;;63.50;22.47;;;-3.50;91.80;;;;;;4409124;28;659727;-80
2023/03/03 03:23:28;;;;;;;60.70;22.33;;;-3.50;93.50;;;;;;4412599;28;659266;-81
2023/03/03 03:26:15;;;;;;;54.60;21.83;;;-3.50;92.30;;;;;;4418952;28;658614;-79
2023/03/03 03:29:02;;;;;;;55.40;22.53;;;-3.50;94.10;;;;;;4422457;28;658806;-78
2023/03/03 03:31:50;;;;;;;53.03;22.30;;;-3.50;94.90;;;;;;4425571;28;658233;-78
2023/03/03 03:34:39;;;;;;;55.67;22.50;;;-3.50;91.30;;;;;;4430858;28;659744;-81
2023/03/03 03:37:26;;;;;;;56.07;22.57;;;-3.60;89.00;;;;;;4399484;28;658613;-82
2023/03/03 03:40:14;;;;;;;58.60;21.53;;;-3.60;90.90;;;;;;4420067;28;659389;-79
2023/03/03 03:43:01;;;;;;;55.83;21.87;;;-3.60;90.60;;;;;;4400308;28;658898;-80
2023/03/03 03:45:48;;;;;;;53.53;21.77;;;-3.60;91.50;;;;;;4430290;28;658723;-81
2023/03/03 03:48:35;;;;;;;50.90;19.27;;;-3.60;90.60;;;;;;4403066;28;658452;-77
2023/03/03 03:51:24;;;;;;;59.07;21.87;;;-3.60;91.00;;;;;;4422957;28;659091;-81
2023/03/03 03:54:11;;;;;;;47.67;21.13;;;-3.60;94.30;;;;;;4405182;28;659339;-80
2023/03/03 03:56:58;;;;;;;57.23;21.67;;;-3.60;95.20;;;;;;4427279;28;659437;-81
2023/03/03 03:59:46;;;;;;;61.47;23.23;;;-3.70;95.60;;;;;;4401979;28;658576;-80
2023/03/03 04:02:33;;;;;;;57.28;22.10;;;-3.70;98.30;;;;;;4426373;28;658246;-81
2023/03/03 04:05:20;;;;;;;62.60;22.87;;;-3.60;99.90;;;;;;4402681;28;659005;-77
2023/03/03 04:08:09;;;;;;;56.57;22.17;;;-3.70;99.90;;;;;;4426002;28;658737;-81
2023/03/03 04:10:56;;;;;;;62.83;23.10;;;-3.70;98.20;;;;;;4401031;28;658553;-77
2023/03/03 04:13:43;;;;;;;68.63;26.42;;;-3.70;98.90;;;;;;4428636;28;659023;-78
2023/03/03 04:16:31;;;;;;;64.77;24.57;;;-3.80;98.60;;;;;;4403637;28;658510;-80
2023/03/03 04:19:18;;;;;;;64.63;24.10;;;-3.80;97.20;;;;;;4418897;28;659985;-81
2023/03/03 04:22:05;;;;;;;69.80;26.13;;;-3.70;99.80;;;;;;4406550;28;658449;-76
2023/03/03 04:24:54;;;;;;;63.17;25.00;;;-3.70;99.90;;;;;;4424514;28;659412;-81
2023/03/03 04:27:42;;;;;;;67.57;24.03;;;-3.70;99.90;;;;;;4404524;28;658760;-81
2023/03/03 04:30:29;;;;;;;66.23;24.57;;;-3.70;99.90;;;;;;4425032;28;658072;-80
2023/03/03 04:33:16;;;;;;;61.77;23.90;;;-3.70;99.90;;;;;;4407300;28;658609;-80
2023/03/03 04:36:04;;;;;;;62.20;23.67;;;-3.70;99.90;;;;;;4427693;28;658853;-76
2023/03/03 04:38:51;;;;;;;66.20;24.87;;;-3.70;99.90;;;;;;4401427;28;658301;-80
2023/03/03 04:41:39;;;;;;;57.77;22.27;;;-3.80;96.30;;;;;;4422182;28;658914;-77
2023/03/03 04:44:27;;;;;;;59.13;24.57;;;-3.80;98.00;;;;;;4404250;28;658841;-81
2023/03/03 04:47:14;;;;;;;69.23;25.27;;;-3.80;98.20;;;;;;4424109;28;658632;-81
2023/03/03 04:50:01;;;;;;;146.53;55.37;;;-3.80;94.80;;;;;;4405803;28;658971;-80
2023/03/03 04:52:48;;;;;;;107.25;40.20;;;-3.90;91.30;;;;;;4424758;28;660338;-81
2023/03/03 04:55:36;;;;;;;74.93;29.73;;;-3.90;94.60;;;;;;4405812;28;659920;-79
2023/03/03 04:58:25;;;;;;;61.13;23.63;;;-3.90;94.00;;;;;;4423412;28;659293;-80
2023/03/03 05:01:13;;;;;;;68.40;26.60;;;-3.90;95.60;;;;;;4404859;28;659260;-80
2023/03/03 05:04:00;;;;;;;63.87;24.90;;;-3.90;98.90;;;;;;4408511;28;658751;-76
2023/03/03 05:06:47;;;;;;;72.63;26.37;;;-3.90;99.90;;;;;;4432235;28;659160;-80
2023/03/03 05:09:35;;;;;;;67.30;25.60;;;-3.90;99.90;;;;;;4422388;28;658981;-77
2023/03/03 05:12:22;;;;;;;64.67;24.73;;;-3.90;99.90;;;;;;4429061;28;658807;-81
2023/03/03 05:15:12;;;;;;;58.57;23.27;;;-3.90;99.90;;;;;;4423078;28;658418;-77
2023/03/03 05:17:59;;;;;;;65.70;25.07;;;-4.00;99.90;;;;;;4431918;28;658408;-79
2023/03/03 05:20:47;;;;;;;67.50;25.20;;;-4.00;99.90;;;;;;4407022;28;658499;-81
2023/03/03 05:23:34;;;;;;;68.47;24.97;;;-4.00;99.90;;;;;;4422942;28;658653;-80
2023/03/03 05:26:21;;;;;;;68.53;25.80;;;-4.00;99.90;;;;;;4406660;28;659075;-81
2023/03/03 05:29:09;;;;;;;64.57;24.93;;;-4.00;99.90;;;;;;4426713;28;658628;-81
2023/03/03 05:31:57;;;;;;;70.63;25.43;;;-4.00;99.90;;;;;;4403112;28;658714;-81
2023/03/03 05:34:44;;;;;;;64.73;26.33;;;-4.00;99.90;;;;;;4425638;28;659013;-80
2023/03/03 05:37:32;;;;;;;63.77;25.93;;;-4.00;99.90;;;;;;4406764;28;658757;-79
2023/03/03 05:40:19;;;;;;;68.77;26.00;;;-4.00;99.90;;;;;;4429988;28;658725;-81
2023/03/03 05:43:07;;;;;;;62.67;24.87;;;-3.80;99.90;;;;;;4407581;28;658699;-78
2023/03/03 05:45:58;;;;;;;61.80;23.33;;;-3.70;99.90;;;;;;4432474;28;658160;-79
2023/03/03 05:48:47;;;;;;;69.30;25.87;;;-3.60;99.90;;;;;;4378557;28;659077;-77
2023/03/03 05:51:34;;;;;;;71.27;27.03;;;-3.40;99.90;;;;;;4433486;28;658854;-80
2023/03/03 05:54:21;;;;;;;74.23;26.20;;;-3.30;99.90;;;;;;4403719;28;658926;-79
2023/03/03 05:57:08;;;;;;;78.33;27.43;;;-3.10;97.20;;;;;;4429385;28;659850;-78
2023/03/03 05:59:56;;;;;;;72.70;26.50;;;-3.00;88.20;;;;;;4404476;28;658937;-79
2023/03/03 06:02:43;;;;;;;73.07;27.10;;;-2.90;90.60;;;;;;4426172;28;658914;-79
2023/03/03 06:05:32;;;;;;;71.75;27.15;;;-2.70;92.60;;;;;;4410705;28;658738;-76
2023/03/03 06:08:19;;;;;;;77.83;29.50;;;-2.60;93.20;;;;;;4426326;28;658416;-79
2023/03/03 06:11:06;;;;;;;83.23;30.77;;;-2.40;90.60;;;;;;4411049;28;659127;-79
2023/03/03 06:13:53;;;;;;;84.53;30.80;;;-2.30;95.80;;;;;;4420926;28;658968;-78
2023/03/03 06:16:40;;;;;;;85.27;31.23;;;-2.10;99.90;;;;;;4406527;28;659143;-78
2023/03/03 06:19:28;;;;;;;86.43;32.97;;;-1.90;99.90;;;;;;4423179;28;658650;-78
2023/03/03 06:22:17;;;;;;;85.80;33.47;;;-1.70;99.90;;;;;;4412904;28;658991;-76
2023/03/03 06:25:04;;;;;;;92.93;33.37;;;-1.60;99.90;;;;;;4428393;28;658241;-78
2023/03/03 06:27:52;;;;;;;90.93;35.23;;;-1.50;99.90;;;;;;4406082;28;658730;-78
2023/03/03 06:30:39;;;;;;;91.53;35.70;;;-1.30;99.90;;;;;;4427628;28;658490;-78
2023/03/03 06:33:26;;;;;;;90.80;35.42;;;-1.20;99.90;;;;;;4413796;28;659016;-78
2023/03/03 06:36:13;;;;;;;102.07;38.77;;;-1.10;99.90;;;;;;4431332;28;658941;-78
2023/03/03 06:39:02;;;;;;;92.90;35.90;;;-0.90;99.90;;;;;;4408295;28;660356;-78
2023/03/03 06:41:50;;;;;;;96.30;35.23;;;-0.80;99.90;;;;;;4422889;28;658467;-76
2023/03/03 06:44:37;;;;;;;100.33;38.00;;;-0.70;99.90;;;;;;4434619;28;659115;-78
2023/03/03 06:47:25;;;;;;;90.13;33.23;;;-0.50;99.90;;;;;;4427349;28;660156;-76
2023/03/03 06:50:13;;;;;;;73.87;30.90;;;-0.40;99.90;;;;;;4424468;28;659106;-77
2023/03/03 06:53:02;;;;;;;74.43;31.07;;;-0.30;87.70;;;;;;4416002;28;658768;-75
2023/03/03 06:55:52;;;;;;;88.40;35.87;;;-0.30;55.90;;;;;;4424778;28;659144;-74
2023/03/03 06:58:39;;;;;;;95.67;38.67;;;-0.30;44.00;;;;;;4420189;28;658560;-74
2023/03/03 07:01:26;;;;;;;107.67;42.57;;;-0.10;55.00;;;;;;4407115;28;658760;-74
2023/03/03 07:04:24;;;;;;;107.72;43.58;;;0.10;61.30;;;;;;4425095;28;660533;-74
2023/03/03 07:07:13;;;;;;;160.37;62.00;;;0.30;60.50;;;;;;4406823;28;659201;-73
2023/03/03 07:10:01;;;;;;;179.77;65.23;;;0.40;52.50;;;;;;4399681;28;658712;-72
2023/03/03 07:12:49;;;;;;;168.53;61.87;;;0.50;23.70;;;;;;4425894;28;659393;-72
2023/03/03 07:15:36;;;;;;;180.17;66.10;;;0.60;1.00;;;;;;4408623;28;659153;-72
2023/03/03 07:18:35;;;;;;;177.23;67.53;;;0.70;1.00;;;;;;4420392;28;657708;-72
2023/03/03 07:21:23;;;;;;;171.47;65.63;;;0.70;1.00;;;;;;4380940;28;657747;-72
2023/03/03 07:24:26;;;;;;;171.73;64.67;;;0.80;1.00;;;;;;4406672;28;657637;-72
2023/03/03 07:27:16;;;;;;;149.87;59.53;;;0.80;1.00;;;;;;4398330;28;658039;-72
2023/03/03 07:30:22;;;;;;;164.77;62.90;;;0.90;1.00;;;;;;4404439;28;658623;-72
2023/03/03 07:33:15;;;;;;;141.97;52.80;;;0.70;1.00;;;;;;4397523;28;657565;-72
2023/03/03 07:36:03;;;;;;;145.20;56.87;;;0.60;1.00;;;;;;4376589;28;658903;-72
2023/03/03 07:38:51;;;;;;;120.23;44.47;;;0.70;1.00;;;;;;4407002;28;658189;-72
2023/03/03 07:41:38;;;;;;;142.80;53.03;;;0.50;1.00;;;;;;4419401;28;658034;-72
2023/03/03 07:44:28;;;;;;;148.20;52.30;;;0.50;1.00;;;;;;4406464;28;657843;-72
2023/03/03 07:47:26;;;;;;;149.53;57.77;;;0.40;1.00;;;;;;4416885;28;657746;-72
2023/03/03 07:50:15;;;;;;;142.17;58.47;;;0.50;1.00;;;;;;4399895;28;658040;-73
2023/03/03 07:53:05;;;;;;;157.00;56.50;;;0.60;1.00;;;;;;4404936;28;658172;-72
2023/03/03 07:55:52;;;;;;;153.50;58.03;;;0.70;1.00;;;;;;4399467;28;658356;-72
2023/03/03 07:58:40;;;;;;;146.73;55.60;;;0.90;1.00;;;;;;4423872;28;657841;-72
2023/03/03 08:01:41;;;;;;;143.80;55.50;;;1.10;1.00;;;;;;4400145;28;657930;-72
2023/03/03 08:04:35;;;;;;;150.93;55.25;;;0.80;1.00;;;;;;4402068;28;657416;-72
2023/03/03 08:07:23;;;;;;;154.17;54.83;;;1.00;1.00;;;;;;4376523;28;658019;-74
2023/03/03 08:10:30;;;;;;;156.57;58.67;;;1.10;1.00;;;;;;4401083;28;657854;-74
2023/03/03 08:13:19;;;;;;;240.13;63.57;;;1.00;99.90;;;;;;4394959;28;657558;-74
2023/03/03 08:16:22;;;;;;;163.03;60.13;;;1.00;1.00;;;;;;4411997;28;658198;-74
2023/03/03 08:19:10;;;;;;;131.50;50.63;;;1.20;1.00;;;;;;4401390;28;657947;-74
2023/03/03 08:21:59;;;;;;;146.93;53.45;;;1.30;99.90;;;;;;4404279;28;657693;-73
2023/03/03 08:24:47;;;;;;;126.03;50.03;;;1.10;99.90;;;;;;4404206;28;659009;-73
2023/03/03 08:27:34;;;;;;;131.50;47.40;;;0.70;99.90;;;;;;4428374;28;658652;-72
2023/03/03 08:30:21;;;;;;;131.77;49.80;;;0.50;1.00;;;;;;4406359;28;658666;-73
2023/03/03 08:33:08;;;;;;;128.53;50.40;;;0.50;1.00;;;;;;4427958;28;658169;-73
2023/03/03 08:35:55;;;;;;;130.67;51.97;;;0.70;1.00;;;;;;4405097;28;658057;-73
2023/03/03 08:38:44;;;;;;;139.97;52.23;;;0.70;1.00;;;;;;4426816;28;658479;-73
2023/03/03 08:41:31;;;;;;;142.47;55.20;;;0.70;1.00;;;;;;4400514;28;658300;-72
2023/03/03 08:44:19;;;;;;;143.53;52.00;;;0.90;1.00;;;;;;4421382;28;657450;-74
2023/03/03 08:47:06;;;;;;;135.80;51.97;;;0.90;1.00;;;;;;4403792;28;657558;-73
2023/03/03 08:49:54;;;;;;;146.93;54.23;;;0.80;99.90;;;;;;4418128;28;657998;-73
2023/03/03 08:52:41;;;;;;;151.27;52.83;;;0.40;99.90;;;;;;4398229;28;658827;-74
2023/03/03 08:55:30;;;;;;;152.17;54.10;;;0.10;1.00;;;;;;4418604;28;659290;-75
2023/03/03 08:58:18;;;;;;;151.83;55.50;;;0.00;1.00;;;;;;4400734;28;659005;-76
2023/03/03 09:01:05;;;;;;;173.52;60.63;;;0.10;1.00;;;;;;4404110;28;657682;-75
2023/03/03 09:03:53;;;;;;;165.50;57.20;;;0.20;1.00;;;;;;4378347;28;657252;-74
2023/03/03 09:06:40;;;;;;;168.97;55.77;;;0.50;1.00;;;;;;4279255;28;657953;-74
2023/03/03 09:09:27;;;;;;;185.03;60.80;;;0.30;1.00;;;;;;4288947;28;657505;-74
2023/03/03 09:12:18;;;;;;;182.90;63.10;;;0.20;99.90;;;;;;4306805;28;657551;-75
2023/03/03 09:15:15;;;;;;;174.33;56.47;;;0.20;1.00;;;;;;4412772;28;659115;-74
2023/03/03 09:18:11;;;;;;;183.35;67.85;;;0.00;1.00;;;;;;4372780;28;657968;-75
2023/03/03 09:20:58;;;;;;;191.23;67.57;;;-0.10;1.00;;;;;;4386338;28;657723;-75
2023/03/03 09:23:48;;;;;;;206.15;71.28;;;-0.20;1.00;;;;;;4395863;28;659705;-75
2023/03/03 09:26:42;;;;;;;209.53;66.43;;;-0.10;1.00;;;;;;4395081;28;659120;-75
2023/03/03 09:29:31;;;;;;;194.40;67.77;;;0.00;1.00;;;;;;4401809;28;659328;-75
2023/03/03 09:32:27;;;;;;;162.55;52.45;;;-0.30;1.00;;;;;;4400678;28;657975;-75
2023/03/03 09:35:34;;;;;;;201.97;62.03;;;-0.40;1.00;;;;;;4401308;28;658651;-74
2023/03/03 09:38:26;;;;;;;190.83;59.40;;;-0.70;1.00;;;;;;4389979;28;658568;-74
2023/03/03 09:41:28;;;;;;;142.80;42.17;;;-0.50;1.00;;;;;;4404213;28;658635;-74
2023/03/03 09:44:30;;;;;;;132.53;43.93;;;-0.50;1.00;;;;;;4373640;28;658930;-75
2023/03/03 09:47:30;;;;;;;162.43;46.90;;;-0.40;1.00;;;;;;4377259;28;659493;-75
2023/03/03 09:50:30;;;;;;;147.23;45.03;;;-0.40;1.00;;;;;;4378443;28;659034;-74
2023/03/03 09:53:24;;;;;;;140.87;43.70;;;-0.50;1.00;;;;;;4406279;28;659077;-75
2023/03/03 09:56:14;;;;;;;144.07;46.10;;;-0.30;1.00;;;;;;4408544;28;658373;-75
2023/03/03 09:59:08;;;;;;;102.97;34.23;;;-0.10;1.00;;;;;;4404638;28;658755;-75
2023/03/03 10:02:03;;;;;;;112.13;39.13;;;-0.20;1.00;;;;;;4384899;28;659353;-75
2023/03/03 10:05:03;;;;;;;105.90;37.10;;;-0.20;1.00;;;;;;4371201;28;659004;-75
2023/03/03 10:07:55;;;;;;;117.20;40.30;;;-0.20;1.00;;;;;;4398595;28;658256;-75
2023/03/03 10:10:53;;;;;;;111.57;37.97;;;-0.20;1.00;;;;;;4399381;28;659670;-75
2023/03/03 10:14:11;;;;;;;99.87;33.50;;;-0.50;1.00;;;;;;4394036;28;659194;-75
2023/03/03 10:17:07;;;;;;;120.53;37.57;;;-0.60;1.00;;;;;;4403232;28;658563;-75
2023/03/03 10:20:04;;;;;;;118.73;36.63;;;-0.60;1.00;;;;;;4394917;28;658861;-75
2023/03/03 10:22:53;;;;;;;117.20;36.47;;;-0.50;1.00;;;;;;4396245;28;658837;-75
2023/03/03 10:25:41;;;;;;;115.68;34.05;;;-0.40;1.00;;;;;;4402810;28;658373;-75
2023/03/03 10:28:57;;;;;;;87.43;25.58;;;-0.40;1.00;;;;;;4428869;28;659857;-75
2023/03/03 10:31:54;;;;;;;94.23;29.93;;;-0.50;1.00;;;;;;4405800;28;657244;-75
2023/03/03 10:34:52;;;;;;;101.07;28.30;;;-0.40;1.00;;;;;;4386975;28;658013;-75
2023/03/03 10:37:46;;;;;;;100.27;30.37;;;-0.40;1.00;;;;;;4402788;28;659107;-75
2023/03/03 10:40:34;;;;;;;95.23;29.03;;;-0.50;1.00;;;;;;4394713;28;659117;-75
2023/03/03 10:43:49;;;;;;;102.67;30.77;;;-0.20;1.00;;;;;;4396458;28;657718;-75
2023/03/03 10:47:02;;;;;;;108.50;30.70;;;-0.50;1.00;;;;;;4383015;28;659038;-75
2023/03/03 10:49:55;;;;;;;103.43;29.53;;;-0.30;1.00;;;;;;4397219;28;658617;-75
2023/03/03 10:52:46;;;;;;;92.10;25.80;;;-0.50;1.00;;;;;;4407606;28;658894;-75
2023/03/03 10:55:37;;;;;;;85.13;23.60;;;-0.50;1.00;;;;;;4408178;28;657633;-75
2023/03/03 10:58:45;;;;;;;89.77;28.03;;;-0.40;1.00;;;;;;4399903;28;657527;-75
2023/03/03 11:01:43;;;;;;;94.20;29.43;;;-0.40;1.00;;;;;;4367058;28;658108;-75
2023/03/03 11:04:45;;;;;;;92.53;26.57;;;-0.50;1.00;;;;;;4377905;28;658012;-75
2023/03/03 11:07:35;;;;;;;92.13;25.73;;;-0.40;1.00;;;;;;4371684;28;657571;-75
2023/03/03 11:10:30;;;;;;;83.60;25.13;;;-0.40;1.00;;;;;;4403981;28;658333;-75
2023/03/03 11:13:23;;;;;;;76.37;25.17;;;-0.40;1.00;;;;;;4379438;28;658674;-75
2023/03/03 11:16:30;;;;;;;70.00;23.03;;;-0.50;1.00;;;;;;4387768;28;657659;-75
2023/03/03 11:19:32;;;;;;;65.68;21.58;;;-0.50;1.00;;;;;;4397555;28;658236;-75
2023/03/03 11:22:27;;;;;;;95.17;26.53;;;-0.70;1.00;;;;;;4389955;28;658163;-75
2023/03/03 11:25:23;;;;;;;76.00;25.20;;;-0.50;34.60;;;;;;4400096;28;657552;-75
2023/03/03 11:28:21;;;;;;;84.97;27.00;;;-0.40;7.40;;;;;;4397897;28;659608;-75
2023/03/03 11:31:13;;;;;;;70.33;23.23;;;-0.20;1.00;;;;;;4411942;28;658246;-75
2023/03/03 11:34:04;;;;;;;78.20;25.23;;;-0.30;1.00;;;;;;4396288;28;657750;-75
2023/03/03 11:36:54;;;;;;;61.77;22.20;;;-0.40;1.00;;;;;;4402674;28;657935;-75
2023/03/03 11:39:41;;;;;;;63.50;21.80;;;-0.30;1.00;;;;;;4409961;28;657562;-75
2023/03/03 11:42:31;;;;;;;69.63;23.03;;;-0.30;1.00;;;;;;4424791;28;658543;-75
2023/03/03 11:45:20;;;;;;;61.03;20.13;;;-0.40;1.00;;;;;;4399462;28;657933;-75
2023/03/03 11:48:12;;;;;;;64.63;22.47;;;-0.40;1.00;;;;;;4409069;28;657691;-75
2023/03/03 11:51:00;;;;;;;66.70;22.93;;;-0.30;1.00;;;;;;4409763;28;657754;-75
2023/03/03 11:53:54;;;;;;;63.63;20.40;;;-0.20;1.00;;;;;;4394694;28;657951;-76
2023/03/03 11:56:42;;;;;;;64.83;21.60;;;-0.20;1.00;;;;;;4400058;28;657874;-75
2023/03/03 11:59:40;;;;;;;61.97;18.73;;;-0.20;1.00;;;;;;4428343;28;657715;-75
2023/03/03 12:02:42;;;;;;;68.23;19.80;;;-0.40;99.90;;;;;;4415199;28;658045;-75
2023/03/03 12:05:45;;;;;;;58.83;19.87;;;-0.30;1.00;;;;;;4399962;28;658492;-73
2023/03/03 12:08:38;;;;;;;54.93;19.70;;;-0.30;1.00;;;;;;4409847;28;657785;-73
2023/03/03 12:11:26;;;;;;;58.97;20.47;;;-0.20;99.90;;;;;;4392121;28;657851;-73
2023/03/03 12:14:19;;;;;;;63.30;21.63;;;-0.30;99.90;;;;;;4427364;28;658575;-75
2023/03/03 12:17:09;;;;;;;61.90;19.97;;;-0.40;99.90;;;;;;4404875;28;658843;-76
2023/03/03 12:20:00;;;;;;;68.93;21.20;;;-0.40;99.90;;;;;;4416413;28;658422;-75
2023/03/03 12:22:52;;;;;;;45.77;15.60;;;-0.30;99.90;;;;;;4403504;28;659205;-75
2023/03/03 12:25:40;;;;;;;63.93;22.50;;;-0.30;99.90;;;;;;4402482;28;659026;-75
2023/03/03 12:28:28;;;;;;;66.33;21.37;;;-0.30;99.90;;;;;;4412060;28;659157;-75
2023/03/03 12:31:21;;;;;;;61.37;19.53;;;-0.40;99.90;;;;;;4403198;28;658583;-75
2023/03/03 12:34:12;;;;;;;62.15;20.45;;;-0.30;99.90;;;;;;4401257;28;659332;-75
2023/03/03 12:37:08;;;;;;;57.03;18.07;;;-0.30;99.90;;;;;;4398605;28;659001;-75
2023/03/03 12:40:01;;;;;;;53.40;16.57;;;-0.10;99.90;;;;;;4378593;28;658797;-75
2023/03/03 12:43:04;;;;;;;60.97;19.60;;;-0.10;99.90;;;;;;4400763;28;658924;-75
2023/03/03 12:45:56;;;;;;;55.27;18.40;;;-0.20;99.90;;;;;;4408345;28;659276;-75
2023/03/03 12:48:44;;;;;;;65.30;21.87;;;-0.20;99.90;;;;;;4402469;28;658843;-75
2023/03/03 12:51:38;;;;;;;51.20;17.43;;;-0.10;99.90;;;;;;4405341;28;659189;-75
2023/03/03 12:54:35;;;;;;;49.13;16.40;;;-0.20;99.90;;;;;;4381295;28;659383;-76
2023/03/03 12:57:28;;;;;;;53.43;20.23;;;-0.20;99.90;;;;;;4382134;28;658751;-75
2023/03/03 13:00:25;;;;;;;52.57;18.60;;;-0.20;94.00;;;;;;4389466;28;658611;-75
2023/03/03 13:03:17;;;;;;;54.75;17.17;;;-0.10;1.00;;;;;;4377350;28;658945;-76
2023/03/03 13:06:07;;;;;;;55.57;19.77;;;-0.10;1.00;;;;;;4404815;28;657843;-76
2023/03/03 13:09:15;;;;;;;57.43;19.73;;;-0.30;99.90;;;;;;4403315;28;657559;-76
2023/03/03 13:12:21;;;;;;;49.57;17.50;;;-0.20;5.60;;;;;;4372029;28;659501;-76
2023/03/03 13:15:15;;;;;;;67.03;21.77;;;-0.10;99.90;;;;;;4400853;28;657643;-75
2023/03/03 13:18:21;;;;;;;59.33;20.53;;;0.00;99.90;;;;;;4371609;28;658808;-76
2023/03/03 13:21:10;;;;;;;55.33;20.15;;;0.10;1.00;;;;;;4398742;28;657882;-75
2023/03/03 13:24:01;;;;;;;62.27;20.70;;;0.20;99.90;;;;;;4410734;28;656328;-74
2023/03/03 13:26:50;;;;;;;59.27;22.07;;;0.20;1.00;;;;;;4404630;28;658159;-74
2023/03/03 13:29:40;;;;;;;59.33;20.63;;;0.40;1.00;;;;;;4396995;28;657189;-74
2023/03/03 13:32:31;;;;;;;54.20;20.70;;;0.30;1.00;;;;;;4404717;28;657274;-74
2023/03/03 13:35:22;;;;;;;51.50;17.13;;;0.30;1.00;;;;;;4408069;28;656858;-74
2023/03/03 13:38:10;;;;;;;64.30;22.43;;;-0.10;1.00;;;;;;4405277;28;656850;-74
2023/03/03 13:41:02;;;;;;;54.10;17.97;;;-0.10;1.00;;;;;;4405832;28;657792;-73
2023/03/03 13:43:51;;;;;;;58.73;18.60;;;-0.10;99.90;;;;;;4404637;28;657483;-76
2023/03/03 13:46:42;;;;;;;62.72;21.95;;;-0.20;1.00;;;;;;4411377;28;659171;-76
2023/03/03 13:49:36;;;;;;;64.87;22.00;;;-0.20;99.90;;;;;;4400978;28;657585;-76
2023/03/03 13:52:24;;;;;;;57.57;18.53;;;-0.10;99.90;;;;;;4403564;28;658957;-76
2023/03/03 13:55:27;;;;;;;54.43;20.10;;;-0.20;1.00;;;;;;4398576;28;658558;-76
2023/03/03 13:58:18;;;;;;;60.07;20.47;;;-0.10;1.00;;;;;;4402291;28;657557;-77
2023/03/03 14:01:07;;;;;;;66.43;21.53;;;-0.10;99.90;;;;;;4384372;28;657501;-76
2023/03/03 14:03:59;;;;;;;56.60;20.10;;;-0.10;99.90;;;;;;4428858;28;659286;-76
2023/03/03 14:06:50;;;;;;;43.03;14.07;;;0.00;1.00;;;;;;4401211;28;658635;-76
2023/03/03 14:09:49;;;;;;;65.40;20.95;;;0.00;99.90;;;;;;4411225;28;657731;-76
2023/03/03 14:12:40;;;;;;;54.83;20.30;;;-0.10;1.00;;;;;;4380255;28;657827;-76
2023/03/03 14:15:29;;;;;;;55.80;19.60;;;0.00;1.00;;;;;;4405383;28;658689;-77
2023/03/03 14:18:22;;;;;;;52.67;16.70;;;0.10;1.00;;;;;;4406170;28;656955;-76